Time;durP1;ratioP1;P1;durP2;ratioP2;P2;SDS_P1;SDS_P2;PMS_P1;PMS_P2;Temp;Humidity;BMP_temperature;BMP_pressure;BME280_temperature;BME280_humidity;BME280_pressure;Samples;Min_cycle;Max_cycle;Signal;HPM_P1;HPM_P2
2021/04/06 00:06:53;;;;;;;4.45;1.50;;;1.30;94.40;;;;;;4879286;29;20328;-86
2021/04/06 00:10:07;;;;;;;;;;;;;;;;;;;;;
2021/04/06 00:19:54;;;;;;;5.80;1.58;;;1.00;96.40;;;;;;4832459;29;20225;-88
2021/04/06 00:40:46;;;;;;;;;;;;;;;;;;;;;
2021/04/06 00:50:01;;;;;;;3.42;2.03;;;1.30;95.70;;;;;;4934907;29;20329;-88
2021/04/06 00:52:29;;;;;;;5.00;2.15;;;1.40;95.40;;;;;;4936776;29;20210;-87
2021/04/06 00:54:57;;;;;;;4.38;2.05;;;1.30;95.20;;;;;;4935820;29;20202;-88
2021/04/06 00:57:25;;;;;;;7.93;2.42;;;1.30;95.30;;;;;;4935045;29;20198;-88
2021/04/06 01:00:15;;;;;;;2.70;1.60;;;1.30;95.20;;;;;;4916833;29;20234;-87
2021/04/06 01:02:56;;;;;;;3.28;1.88;;;1.30;95.30;;;;;;4918666;29;20274;-87
2021/04/06 01:05:24;;;;;;;1.75;1.58;;;1.40;94.90;;;;;;4929897;29;20238;-87
2021/04/06 01:08:01;;;;;;;5.07;2.10;;;1.30;94.70;;;;;;4922495;29;20716;-87
2021/04/06 01:10:42;;;;;;;2.67;1.95;;;1.30;95.00;;;;;;4922430;29;20199;-86
2021/04/06 01:13:08;;;;;;;3.10;2.38;;;1.30;95.10;;;;;;4936230;29;20218;-86
2021/04/06 01:15:35;;;;;;;3.00;1.70;;;1.30;94.90;;;;;;4942940;29;20266;-86
2021/04/06 01:18:01;;;;;;;2.60;1.75;;;1.30;95.30;;;;;;4943220;29;20215;-86
2021/04/06 01:20:29;;;;;;;2.63;1.88;;;1.30;96.50;;;;;;4943355;29;20203;-86
2021/04/06 01:22:58;;;;;;;4.22;2.47;;;1.30;96.70;;;;;;4929220;29;20666;-87
2021/04/06 01:25:29;;;;;;;3.33;2.15;;;1.40;96.30;;;;;;4920519;29;20210;-87
2021/04/06 01:28:03;;;;;;;4.13;2.25;;;1.30;95.80;;;;;;4921311;29;20305;-87
2021/04/06 01:30:43;;;;;;;3.25;2.33;;;1.40;95.80;;;;;;4920166;29;20220;-87
2021/04/06 01:33:10;;;;;;;3.38;2.17;;;1.30;95.50;;;;;;4920207;29;20210;-87
2021/04/06 01:35:37;;;;;;;6.15;3.28;;;1.30;95.50;;;;;;4919402;29;20199;-87
2021/04/06 01:38:03;;;;;;;6.13;1.80;;;1.30;95.50;;;;;;4919506;29;20233;-87
2021/04/06 01:40:31;;;;;;;5.88;2.20;;;1.30;95.10;;;;;;4919755;29;20222;-86
2021/04/06 01:42:58;;;;;;;2.53;1.83;;;1.20;95.20;;;;;;4923967;29;20653;-87
2021/04/06 01:45:24;;;;;;;4.60;1.98;;;1.20;95.60;;;;;;4931784;29;20773;-87
2021/04/06 01:47:50;;;;;;;4.50;2.95;;;1.20;95.70;;;;;;4920058;29;20254;-87
2021/04/06 01:50:17;;;;;;;2.58;1.95;;;1.20;95.90;;;;;;4930663;29;20202;-86
2021/04/06 01:52:47;;;;;;;5.03;1.77;;;1.20;95.90;;;;;;4937735;29;20236;-87
2021/04/06 01:55:17;;;;;;;2.85;2.17;;;1.20;96.10;;;;;;4921037;29;20695;-86
2021/04/06 01:57:47;;;;;;;3.80;1.95;;;1.20;95.80;;;;;;4919707;29;20222;-87
2021/04/06 02:00:24;;;;;;;5.30;1.90;;;1.20;95.50;;;;;;4920012;29;20225;-86
2021/04/06 02:02:50;;;;;;;4.50;2.10;;;1.10;95.90;;;;;;4930600;29;20198;-85
2021/04/06 02:05:17;;;;;;;4.70;2.17;;;1.10;95.90;;;;;;4942507;29;20197;-86
2021/04/06 02:07:46;;;;;;;2.35;2.10;;;1.10;96.00;;;;;;4932970;29;20214;-87
2021/04/06 02:10:13;;;;;;;5.13;1.70;;;1.10;96.60;;;;;;4920593;29;20636;-87
2021/04/06 02:12:39;;;;;;;4.25;2.50;;;1.00;96.60;;;;;;4923119;29;20206;-86
2021/04/06 02:15:10;;;;;;;6.70;2.10;;;1.10;95.60;;;;;;4920300;29;20207;-86
2021/04/06 02:17:49;;;;;;;3.08;1.60;;;1.10;95.30;;;;;;4919661;29;20202;-86
2021/04/06 02:20:21;;;;;;;4.90;2.10;;;1.10;95.30;;;;;;4925434;29;20229;-87
2021/04/06 02:22:58;;;;;;;3.30;2.05;;;1.10;94.90;;;;;;4919246;29;20214;-87
2021/04/06 02:25:25;;;;;;;4.35;3.95;;;1.10;95.00;;;;;;4919883;29;20257;-86
2021/04/06 02:27:51;;;;;;;4.40;2.25;;;1.00;95.50;;;;;;4920263;29;20215;-86
2021/04/06 02:30:29;;;;;;;3.88;2.20;;;1.00;96.20;;;;;;4920597;29;20266;-86
2021/04/06 02:32:56;;;;;;;4.95;2.58;;;1.00;96.90;;;;;;4919199;29;20293;-86
2021/04/06 02:35:24;;;;;;;3.47;2.47;;;0.90;97.20;;;;;;4923348;29;20219;-86
2021/04/06 02:37:53;;;;;;;4.95;2.45;;;0.90;97.10;;;;;;4932641;29;20223;-85
2021/04/06 02:40:22;;;;;;;2.60;1.83;;;0.90;96.70;;;;;;4921994;29;20245;-88
2021/04/06 02:42:50;;;;;;;5.25;2.30;;;0.80;93.40;;;;;;4921233;29;20283;-86
2021/04/06 02:45:27;;;;;;;3.53;2.38;;;0.90;93.90;;;;;;4923684;29;20652;-87
2021/04/06 02:48:08;;;;;;;4.93;2.08;;;0.80;93.10;;;;;;4923733;29;20246;-86
2021/04/06 02:50:43;;;;;;;4.93;1.52;;;0.80;93.10;;;;;;4941132;29;20210;-85
2021/04/06 02:53:25;;;;;;;3.47;2.10;;;0.80;93.00;;;;;;4929155;29;20297;-88
2021/04/06 02:56:05;;;;;;;4.25;2.45;;;0.80;93.10;;;;;;4925713;29;20230;-87
2021/04/06 02:58:38;;;;;;;2.22;2.03;;;0.80;93.50;;;;;;4919688;29;20357;-87
2021/04/06 03:01:22;;;;;;;3.22;2.92;;;0.80;93.20;;;;;;4921169;29;20211;-87
2021/04/06 03:06:35;;;;;;;3.30;2.10;;;0.80;92.80;;;;;;4922452;29;20203;-86
2021/04/06 03:09:17;;;;;;;12.15;1.80;;;0.90;93.00;;;;;;4922383;29;20222;-86
2021/04/06 03:11:58;;;;;;;3.80;1.77;;;1.00;92.50;;;;;;4921024;29;20214;-87
2021/04/06 03:14:29;;;;;;;4.75;1.98;;;1.00;92.80;;;;;;4919897;29;20210;-88
2021/04/06 03:16:57;;;;;;;9.38;1.98;;;1.00;92.40;;;;;;4924435;29;20304;-86
2021/04/06 03:19:33;;;;;;;2.55;2.03;;;1.00;92.00;;;;;;4935347;29;20692;-86
2021/04/06 03:22:00;;;;;;;3.72;1.90;;;1.00;92.10;;;;;;4920810;29;20216;-86
2021/04/06 03:24:28;;;;;;;6.95;3.33;;;0.90;92.10;;;;;;4919117;29;20293;-86
2021/04/06 03:26:57;;;;;;;4.85;2.13;;;1.00;92.50;;;;;;4917797;29;20684;-86
2021/04/06 03:29:24;;;;;;;3.30;2.50;;;0.90;92.10;;;;;;4920831;29;20226;-86
2021/04/06 03:31:50;;;;;;;3.95;2.10;;;0.90;92.00;;;;;;4918732;29;20217;-87
2021/04/06 03:34:17;;;;;;;10.80;2.85;;;1.00;92.30;;;;;;4918903;29;20211;-88
2021/04/06 03:36:44;;;;;;;4.22;2.38;;;1.00;91.90;;;;;;4917698;29;20223;-88
2021/04/06 03:39:10;;;;;;;3.90;2.22;;;1.00;92.10;;;;;;4927011;29;20221;-85
2021/04/06 03:41:37;;;;;;;4.20;1.90;;;1.00;92.20;;;;;;4930047;29;20202;-86
2021/04/06 03:44:05;;;;;;;7.90;2.13;;;1.00;91.90;;;;;;4920169;29;20211;-86
2021/04/06 03:46:32;;;;;;;4.10;2.90;;;1.00;91.80;;;;;;4918561;29;20203;-86
2021/04/06 03:49:15;;;;;;;2.92;2.00;;;1.00;92.00;;;;;;4920967;29;20230;-88
2021/04/06 03:51:53;;;;;;;5.68;2.53;;;1.00;92.20;;;;;;4926756;29;20202;-88
2021/04/06 03:54:40;;;;;;;3.92;2.58;;;1.00;91.80;;;;;;4920497;29;20217;-87
2021/04/06 03:57:27;;;;;;;6.80;2.40;;;1.00;92.10;;;;;;4935154;29;20384;-86
2021/04/06 03:59:53;;;;;;;2.33;2.13;;;1.10;91.80;;;;;;4939707;29;20326;-86
2021/04/06 04:02:19;;;;;;;5.90;2.67;;;1.10;91.90;;;;;;4922493;29;20680;-88
2021/04/06 04:04:46;;;;;;;6.70;2.20;;;1.10;91.90;;;;;;4920222;29;20218;-88
2021/04/06 04:07:14;;;;;;;6.13;2.17;;;1.00;91.60;;;;;;4918718;29;20245;-87
2021/04/06 04:09:43;;;;;;;8.55;2.67;;;1.00;91.30;;;;;;4950543;29;20217;-86
2021/04/06 04:12:11;;;;;;;7.78;2.50;;;1.10;91.40;;;;;;4945662;29;20213;-86
2021/04/06 04:14:49;;;;;;;3.40;2.38;;;1.10;91.40;;;;;;4944749;29;20209;-86
2021/04/06 04:17:35;;;;;;;3.78;2.47;;;1.10;91.30;;;;;;4930903;29;20205;-87
2021/04/06 04:20:19;;;;;;;2.47;2.22;;;1.10;91.40;;;;;;4938557;29;20202;-86
2021/04/06 04:23:11;;;;;;;5.45;2.15;;;1.10;91.20;;;;;;4937341;28;20194;-87
2021/04/06 04:26:12;;;;;;;5.85;2.67;;;1.10;91.30;;;;;;4926222;29;20214;-86
2021/04/06 04:28:53;;;;;;;4.78;2.65;;;1.20;91.30;;;;;;4918601;29;20224;-88
2021/04/06 04:31:49;;;;;;;6.65;3.35;;;1.20;91.30;;;;;;4925005;29;20202;-88
2021/04/06 04:34:34;;;;;;;5.28;2.60;;;1.20;91.10;;;;;;4925861;29;20201;-88
2021/04/06 04:37:02;;;;;;;3.78;2.20;;;1.30;91.40;;;;;;4924211;29;20206;-88
2021/04/06 04:39:32;;;;;;;5.30;3.55;;;1.20;90.80;;;;;;4944330;28;20226;-88
2021/04/06 04:42:02;;;;;;;4.70;2.67;;;1.20;91.50;;;;;;4932509;29;20199;-88
2021/04/06 04:44:32;;;;;;;3.33;2.67;;;1.20;91.80;;;;;;4945264;29;20333;-89
2021/04/06 04:47:03;;;;;;;8.13;2.78;;;1.20;91.50;;;;;;4946485;29;20207;-88
2021/04/06 04:49:29;;;;;;;3.95;2.80;;;1.30;91.50;;;;;;4939655;29;20248;-88
2021/04/06 04:51:55;;;;;;;10.25;2.95;;;1.30;91.30;;;;;;4931959;29;20277;-88
2021/04/06 04:54:25;;;;;;;4.10;3.00;;;1.20;91.40;;;;;;4933910;29;20195;-88
2021/04/06 04:56:52;;;;;;;8.77;2.85;;;1.20;91.50;;;;;;4929410;29;20198;-88
2021/04/06 04:59:21;;;;;;;6.85;3.08;;;1.20;91.30;;;;;;4952568;29;20206;-87
2021/04/06 05:01:48;;;;;;;4.75;3.28;;;1.30;91.30;;;;;;4952198;29;20226;-88
2021/04/06 05:04:18;;;;;;;6.43;3.25;;;1.20;91.90;;;;;;4939442;29;20860;-88
2021/04/06 05:06:46;;;;;;;8.48;4.18;;;1.20;91.30;;;;;;4936965;29;20236;-87
2021/04/06 05:09:12;;;;;;;11.57;4.90;;;1.20;91.50;;;;;;4931745;29;20210;-88
2021/04/06 05:11:41;;;;;;;9.02;3.20;;;1.20;91.90;;;;;;4923641;29;20238;-88
2021/04/06 05:14:13;;;;;;;9.98;4.88;;;1.30;91.70;;;;;;4939468;29;20283;-87
2021/04/06 05:16:43;;;;;;;4.85;3.20;;;1.30;91.60;;;;;;4942963;29;20194;-87
2021/04/06 05:19:26;;;;;;;5.68;4.20;;;1.20;91.70;;;;;;4942777;29;20233;-87
2021/04/06 05:21:56;;;;;;;6.72;3.83;;;1.30;92.00;;;;;;4934240;29;20206;-88
2021/04/06 05:24:29;;;;;;;4.88;3.45;;;1.30;92.30;;;;;;4933858;29;20235;-88
2021/04/06 05:26:55;;;;;;;6.85;4.00;;;1.40;92.50;;;;;;4946945;28;20191;-85
2021/04/06 05:29:22;;;;;;;5.50;3.72;;;1.40;92.30;;;;;;4950589;28;20222;-85
2021/04/06 05:31:49;;;;;;;7.82;3.75;;;1.40;92.00;;;;;;4950284;28;20246;-87
2021/04/06 05:34:15;;;;;;;4.38;3.78;;;1.30;91.70;;;;;;4944453;29;20210;-87
2021/04/06 05:36:41;;;;;;;6.45;3.38;;;1.40;92.20;;;;;;4942036;28;20186;-86
2021/04/06 05:39:08;;;;;;;7.70;3.72;;;1.40;92.50;;;;;;4951511;29;20707;-87
2021/04/06 05:41:35;;;;;;;9.20;3.85;;;1.40;92.50;;;;;;4951708;28;20174;-86
2021/04/06 05:44:04;;;;;;;6.22;3.22;;;1.40;92.70;;;;;;4952685;28;20182;-85
2021/04/06 05:46:35;;;;;;;4.45;3.55;;;1.50;92.50;;;;;;4951670;28;20241;-86
2021/04/06 05:49:06;;;;;;;7.32;3.25;;;1.50;92.40;;;;;;4936690;29;20699;-87
2021/04/06 05:51:32;;;;;;;4.50;3.03;;;1.60;92.10;;;;;;4939355;29;20207;-87
2021/04/06 05:53:59;;;;;;;7.90;3.35;;;1.60;92.30;;;;;;4937281;29;20254;-86
2021/04/06 05:56:26;;;;;;;7.95;4.18;;;1.70;92.30;;;;;;4932362;29;20286;-88
2021/04/06 05:58:58;;;;;;;4.30;3.45;;;1.80;92.10;;;;;;4927849;29;20226;-89
2021/04/06 06:01:25;;;;;;;5.10;3.08;;;1.80;92.00;;;;;;4925230;29;20237;-88
2021/04/06 06:04:21;;;;;;;4.95;3.55;;;1.90;91.70;;;;;;4922613;29;20210;-88
2021/04/06 06:06:47;;;;;;;13.88;3.95;;;1.90;91.80;;;;;;4921971;29;20578;-88
2021/04/06 06:09:44;;;;;;;7.07;4.10;;;1.70;91.20;;;;;;4925341;29;20907;-88
2021/04/06 06:12:16;;;;;;;8.48;3.40;;;1.80;91.50;;;;;;4921600;29;20195;-88
2021/04/06 06:14:51;;;;;;;4.22;3.20;;;1.80;91.70;;;;;;4935475;29;20298;-88
2021/04/06 06:17:42;;;;;;;5.22;2.72;;;1.90;91.80;;;;;;4926460;29;20187;-87
2021/04/06 06:26:27;;;;;;;7.50;3.95;;;2.10;91.90;;;;;;4927116;29;20215;-88
2021/04/06 06:29:12;;;;;;;8.00;3.15;;;2.30;91.50;;;;;;4923419;29;20227;-88
2021/04/06 06:31:48;;;;;;;4.97;2.53;;;2.50;91.30;;;;;;4941384;29;20207;-89
2021/04/06 06:34:31;;;;;;;4.65;2.90;;;2.60;90.50;;;;;;4940045;29;20222;-89
2021/04/06 06:37:19;;;;;;;11.70;3.88;;;2.60;90.00;;;;;;4928251;29;20665;-88
2021/04/06 06:40:06;;;;;;;8.63;3.50;;;2.60;89.80;;;;;;4923039;29;20226;-88
2021/04/06 06:43:05;;;;;;;9.68;3.13;;;2.60;89.20;;;;;;4920472;29;20262;-87
2021/04/06 06:48:53;;;;;;;5.90;2.95;;;2.70;89.00;;;;;;4936319;29;20573;-88
2021/04/06 06:51:34;;;;;;;7.68;3.60;;;2.80;89.50;;;;;;4929914;29;20218;-87
2021/04/06 06:54:27;;;;;;;6.57;5.20;;;2.70;88.60;;;;;;4922780;29;20300;-88
2021/04/06 06:57:08;;;;;;;10.73;3.08;;;2.90;90.00;;;;;;4923630;29;20270;-88
2021/04/06 06:59:45;;;;;;;7.05;3.40;;;3.00;89.60;;;;;;4921056;29;20237;-87
2021/04/06 07:02:22;;;;;;;5.47;4.82;;;3.10;89.10;;;;;;4921450;29;20294;-88
2021/04/06 07:04:55;;;;;;;5.60;3.45;;;3.20;87.40;;;;;;4930742;29;20274;-87
2021/04/06 07:07:47;;;;;;;4.07;2.40;;;3.20;88.00;;;;;;4936595;29;20222;-87
2021/04/06 07:10:37;;;;;;;6.85;3.45;;;3.30;87.00;;;;;;4934447;29;20301;-88
2021/04/06 07:13:24;;;;;;;6.20;2.88;;;3.40;86.40;;;;;;4922730;29;20206;-87
2021/04/06 07:16:00;;;;;;;6.60;3.15;;;3.50;86.40;;;;;;4921439;29;20228;-87
2021/04/06 07:21:19;;;;;;;5.90;2.90;;;3.60;85.00;;;;;;4932672;29;20234;-87
2021/04/06 07:23:52;;;;;;;5.93;2.88;;;3.90;85.40;;;;;;4939792;29;20203;-86
2021/04/06 07:26:28;;;;;;;4.90;2.60;;;4.20;84.60;;;;;;4936108;29;20214;-87
2021/04/06 07:28:54;;;;;;;9.52;2.70;;;4.30;83.20;;;;;;4922081;29;20322;-87
2021/04/06 07:31:21;;;;;;;7.32;3.70;;;4.10;82.00;;;;;;4922584;29;20211;-86
2021/04/06 07:33:48;;;;;;;7.40;3.65;;;3.90;82.30;;;;;;4932336;29;20203;-86
2021/04/06 07:36:17;;;;;;;17.48;4.65;;;4.00;82.80;;;;;;4933239;29;20217;-86
2021/04/06 07:38:46;;;;;;;5.03;2.72;;;4.20;83.40;;;;;;4922603;29;20227;-87
2021/04/06 07:41:14;;;;;;;7.90;3.08;;;4.40;82.50;;;;;;4919944;29;20669;-87
2021/04/06 07:43:43;;;;;;;7.10;3.55;;;4.50;81.60;;;;;;4920119;29;20203;-88
2021/04/06 07:46:09;;;;;;;4.72;2.97;;;4.70;81.60;;;;;;4920948;29;20239;-87
2021/04/06 07:48:51;;;;;;;6.78;2.88;;;4.70;80.20;;;;;;4919489;29;20223;-86
2021/04/06 07:51:25;;;;;;;9.15;3.75;;;4.70;80.50;;;;;;4920311;29;20548;-86
2021/04/06 07:54:01;;;;;;;5.10;2.45;;;4.70;79.60;;;;;;4921262;29;20672;-86
2021/04/06 07:56:51;;;;;;;8.93;3.08;;;4.60;79.90;;;;;;4920724;29;20195;-86
2021/04/06 07:59:54;;;;;;;4.65;3.00;;;4.50;80.30;;;;;;4920001;29;20231;-87
2021/04/06 08:02:27;;;;;;;6.90;2.72;;;4.50;81.90;;;;;;4919879;29;20301;-86
2021/04/06 08:04:56;;;;;;;7.25;2.92;;;4.50;81.10;;;;;;4936134;29;20219;-84
2021/04/06 08:07:27;;;;;;;9.48;3.15;;;4.40;80.20;;;;;;4938271;29;20282;-83
2021/04/06 08:09:54;;;;;;;5.10;3.00;;;4.30;80.70;;;;;;4949563;29;20278;-83
2021/04/06 08:12:22;;;;;;;7.10;2.75;;;4.40;81.60;;;;;;4959615;23;20233;-83
2021/04/06 08:14:50;;;;;;;9.18;3.53;;;4.50;81.30;;;;;;4946410;29;20297;-82
2021/04/06 08:17:53;;;;;;;10.77;3.95;;;4.50;80.90;;;;;;4949897;29;20214;-84
2021/04/06 08:20:34;;;;;;;4.78;3.47;;;4.70;81.00;;;;;;4949950;29;20263;-83
2021/04/06 08:23:02;;;;;;;6.47;2.80;;;4.80;81.00;;;;;;4951696;29;20223;-82
2021/04/06 08:26:20;;;;;;;6.80;2.83;;;4.70;79.50;;;;;;4970486;23;20223;-84
2021/04/06 08:28:49;;;;;;;4.10;2.60;;;4.60;80.40;;;;;;4933259;29;20645;-83
2021/04/06 08:31:35;;;;;;;7.07;3.53;;;4.60;79.40;;;;;;4948294;29;20222;-86
2021/04/06 08:34:39;;;;;;;6.38;3.50;;;4.60;80.00;;;;;;4947528;29;20211;-86
2021/04/06 08:37:18;;;;;;;3.38;2.50;;;4.70;80.30;;;;;;4950433;29;20228;-86
2021/04/06 08:39:45;;;;;;;5.82;3.47;;;4.80;80.50;;;;;;4939566;29;20236;-85
2021/04/06 08:42:17;;;;;;;12.82;3.50;;;4.80;80.60;;;;;;4918522;29;20211;-85
2021/04/06 08:44:47;;;;;;;5.10;3.13;;;4.70;79.90;;;;;;4906396;29;20732;-86
2021/04/06 08:47:38;;;;;;;4.40;2.95;;;4.70;80.10;;;;;;4923765;29;20234;-86
2021/04/06 08:50:07;;;;;;;8.13;4.13;;;4.70;81.00;;;;;;4916557;29;20228;-85
2021/04/06 08:52:35;;;;;;;6.82;3.90;;;4.60;82.70;;;;;;4908148;29;20225;-86
2021/04/06 08:55:11;;;;;;;8.18;4.03;;;4.60;84.00;;;;;;4915409;29;20200;-85
2021/04/06 08:57:38;;;;;;;8.27;4.10;;;4.50;85.80;;;;;;4903272;29;20309;-85
2021/04/06 09:00:10;;;;;;;6.20;3.22;;;4.60;86.60;;;;;;4938572;29;20226;-86
2021/04/06 09:02:37;;;;;;;5.80;3.63;;;4.70;85.80;;;;;;4937284;29;20273;-85
2021/04/06 09:05:04;;;;;;;9.93;3.53;;;5.00;85.30;;;;;;4929911;29;20527;-85
2021/04/06 09:07:35;;;;;;;6.05;2.60;;;5.20;83.50;;;;;;4922903;29;20228;-86
2021/04/06 09:10:06;;;;;;;5.97;3.22;;;5.50;82.60;;;;;;4924042;29;20205;-86
2021/04/06 09:12:33;;;;;;;4.38;2.67;;;5.50;79.80;;;;;;4934420;29;20584;-86
2021/04/06 09:15:01;;;;;;;6.57;3.80;;;5.40;78.90;;;;;;4940320;29;20254;-85
2021/04/06 09:17:31;;;;;;;6.35;2.90;;;5.40;78.00;;;;;;4927112;29;20877;-85
2021/04/06 09:19:58;;;;;;;6.00;2.75;;;5.40;78.70;;;;;;4923102;29;20761;-86
2021/04/06 09:22:25;;;;;;;4.65;2.58;;;5.60;77.80;;;;;;4911971;29;20209;-86
2021/04/06 09:24:51;;;;;;;7.97;2.70;;;5.70;77.20;;;;;;4901588;29;20581;-85
2021/04/06 09:27:19;;;;;;;7.15;3.45;;;5.60;75.70;;;;;;4903139;29;20234;-85
2021/04/06 09:29:47;;;;;;;4.93;2.58;;;5.50;75.90;;;;;;4922614;29;20573;-84
2021/04/06 09:32:16;;;;;;;8.70;3.45;;;5.50;76.20;;;;;;4911203;29;20205;-84
2021/04/06 09:35:14;;;;;;;4.45;2.00;;;5.40;76.00;;;;;;4917767;29;20209;-85
2021/04/06 09:37:50;;;;;;;8.37;2.53;;;5.60;76.10;;;;;;4924580;29;20241;-86
2021/04/06 09:40:17;;;;;;;8.20;3.65;;;5.70;74.70;;;;;;4921464;29;20505;-85
2021/04/06 09:42:45;;;;;;;4.00;2.70;;;5.90;74.20;;;;;;4905104;29;20212;-87
2021/04/06 09:45:11;;;;;;;4.88;2.38;;;6.00;73.50;;;;;;4903430;29;20214;-85
2021/04/06 09:47:37;;;;;;;4.47;2.50;;;6.00;72.70;;;;;;4903637;29;20230;-85
2021/04/06 09:50:06;;;;;;;4.20;2.47;;;6.20;73.10;;;;;;4904788;29;20453;-84
2021/04/06 09:52:32;;;;;;;8.33;2.90;;;6.20;73.10;;;;;;4910641;29;20249;-84
2021/04/06 09:55:01;;;;;;;6.07;3.40;;;6.10;73.00;;;;;;4913777;29;20559;-84
2021/04/06 09:57:33;;;;;;;4.75;2.17;;;5.90;73.80;;;;;;4921584;29;20573;-85
2021/04/06 10:00:00;;;;;;;7.60;3.27;;;6.30;73.70;;;;;;4924833;29;20227;-84
2021/04/06 10:02:28;;;;;;;9.50;2.33;;;6.80;70.70;;;;;;4904625;29;20466;-85
2021/04/06 10:04:55;;;;;;;9.43;3.23;;;7.80;68.50;;;;;;4905905;29;20468;-86
2021/04/06 10:07:23;;;;;;;4.93;2.27;;;8.10;65.20;;;;;;4919789;29;20489;-85
2021/04/06 10:09:50;;;;;;;5.20;2.60;;;7.70;63.50;;;;;;4920310;29;20453;-84
2021/04/06 10:12:19;;;;;;;6.30;2.80;;;7.80;63.30;;;;;;4931301;29;20454;-85
2021/04/06 10:14:46;;;;;;;7.87;2.90;;;8.50;62.30;;;;;;4939879;29;20461;-86
2021/04/06 10:17:16;;;;;;;4.03;2.80;;;9.20;60.30;;;;;;4905103;29;20474;-86
2021/04/06 10:19:45;;;;;;;6.53;3.37;;;10.80;57.60;;;;;;4902495;29;20491;-85
2021/04/06 10:22:17;;;;;;;3.27;2.30;;;12.10;54.70;;;;;;4902597;29;20467;-84
2021/04/06 10:24:46;;;;;;;6.50;2.20;;;12.40;50.80;;;;;;4909057;29;20489;-86
2021/04/06 10:27:18;;;;;;;3.17;2.23;;;11.70;50.40;;;;;;4936616;29;20486;-84
2021/04/06 10:29:52;;;;;;;4.43;2.10;;;10.60;50.90;;;;;;4927618;29;20470;-85
2021/04/06 10:32:26;;;;;;;2.43;2.13;;;9.80;53.00;;;;;;4923490;29;20442;-85
2021/04/06 10:35:01;;;;;;;3.83;2.20;;;10.00;53.60;;;;;;4908872;29;21100;-85
2021/04/06 10:37:39;;;;;;;3.30;2.90;;;11.70;51.70;;;;;;4922019;29;20561;-86
2021/04/06 10:40:21;;;;;;;4.80;2.20;;;12.80;47.80;;;;;;4922306;29;20494;-86
2021/04/06 10:42:49;;;;;;;3.10;2.80;;;12.80;46.00;;;;;;4922685;29;20462;-86
2021/04/06 10:45:17;;;;;;;5.43;2.70;;;13.60;45.20;;;;;;4923466;29;20448;-86
2021/04/06 10:47:44;;;;;;;9.50;2.60;;;14.70;43.90;;;;;;4931128;29;20479;-86
2021/04/06 10:50:12;;;;;;;3.47;2.20;;;15.80;42.80;;;;;;4905111;29;20506;-87
2021/04/06 10:52:38;;;;;;;2.97;2.17;;;16.20;40.80;;;;;;4914385;29;20465;-87
2021/04/06 10:55:08;;;;;;;3.57;2.07;;;15.50;39.90;;;;;;4927003;29;20576;-89
2021/04/06 10:57:36;;;;;;;4.27;2.27;;;15.20;40.20;;;;;;4921605;29;20581;-88
2021/04/06 11:00:20;;;;;;;6.50;3.30;;;13.90;41.40;;;;;;4909240;29;20485;-88
2021/04/06 11:02:48;;;;;;;2.50;2.20;;;12.80;42.50;;;;;;4918053;29;20471;-87
2021/04/06 11:05:29;;;;;;;3.73;2.37;;;12.20;44.20;;;;;;4900145;29;20459;-88
2021/04/06 11:07:56;;;;;;;5.07;3.50;;;11.80;45.00;;;;;;4901886;29;20487;-87
2021/04/06 11:10:24;;;;;;;5.50;2.30;;;11.40;46.00;;;;;;4906590;29;20452;-85
2021/04/06 11:12:51;;;;;;;2.73;2.00;;;11.10;46.30;;;;;;4901418;29;20462;-87
2021/04/06 11:15:18;;;;;;;4.93;2.80;;;10.70;47.00;;;;;;4900317;29;20463;-86
2021/04/06 11:17:45;;;;;;;6.00;2.77;;;10.50;47.90;;;;;;4911342;29;20463;-87
2021/04/06 11:20:18;;;;;;;7.10;2.37;;;10.10;48.20;;;;;;4923925;29;20491;-87
2021/04/06 11:22:45;;;;;;;5.47;3.10;;;10.00;48.40;;;;;;4939118;29;20431;-86
2021/04/06 11:25:12;;;;;;;3.77;2.40;;;10.00;48.50;;;;;;4920050;29;20462;-87
2021/04/06 11:27:38;;;;;;;6.07;2.90;;;9.70;50.40;;;;;;4919923;29;21225;-88
2021/04/06 11:30:10;;;;;;;8.53;3.77;;;10.50;50.00;;;;;;4915739;29;20447;-86
2021/04/06 11:32:44;;;;;;;5.93;2.67;;;13.10;48.00;;;;;;4903326;29;20523;-86
2021/04/06 11:35:15;;;;;;;4.03;2.47;;;14.00;42.20;;;;;;4913832;29;20462;-86
2021/04/06 11:37:45;;;;;;;4.20;1.83;;;15.00;39.60;;;;;;4921531;29;20468;-86
2021/04/06 11:40:12;;;;;;;4.17;2.00;;;15.30;36.60;;;;;;4921859;29;20491;-86
2021/04/06 11:42:38;;;;;;;4.50;2.73;;;14.60;37.40;;;;;;4922215;29;20444;-87
2021/04/06 11:45:06;;;;;;;3.93;2.40;;;14.10;37.00;;;;;;4919651;29;20444;-86
2021/04/06 11:47:32;;;;;;;6.40;4.00;;;13.00;38.80;;;;;;4908697;29;20467;-86
2021/04/06 11:49:58;;;;;;;6.70;2.73;;;13.40;40.50;;;;;;4933722;29;20497;-87
2021/04/06 11:52:24;;;;;;;4.87;2.73;;;13.20;39.90;;;;;;4940863;29;20451;-86
2021/04/06 11:54:52;;;;;;;3.90;2.10;;;13.10;40.70;;;;;;4930049;29;20461;-87
2021/04/06 11:57:21;;;;;;;5.77;3.20;;;13.60;40.70;;;;;;4904071;29;20483;-86
2021/04/06 11:59:52;;;;;;;2.43;2.10;;;15.40;40.20;;;;;;4905909;29;20526;-86
2021/04/06 12:02:21;;;;;;;3.67;2.53;;;15.20;36.10;;;;;;4901669;29;20463;-85
2021/04/06 12:05:00;;;;;;;4.23;1.97;;;14.20;36.30;;;;;;4914612;29;20443;-87
2021/04/06 12:07:30;;;;;;;5.10;2.80;;;13.30;38.80;;;;;;4922849;29;20885;-85
2021/04/06 12:10:17;;;;;;;4.97;2.43;;;14.90;38.80;;;;;;4919999;29;20860;-86
2021/04/06 12:12:49;;;;;;;5.23;2.77;;;16.50;36.10;;;;;;4925542;29;20518;-86
2021/04/06 12:15:16;;;;;;;6.27;2.90;;;16.40;34.20;;;;;;4938520;29;20426;-86
2021/04/06 12:20:47;;;;;;;10.87;2.47;;;15.00;36.30;;;;;;4900106;29;20615;-85
2021/04/06 12:23:14;;;;;;;5.13;2.40;;;14.10;37.20;;;;;;4943848;29;20466;-86
2021/04/06 12:25:41;;;;;;;3.40;2.37;;;13.80;38.20;;;;;;4923310;29;20451;-87
2021/04/06 12:28:08;;;;;;;6.47;2.87;;;12.70;37.50;;;;;;4919204;29;20479;-86
2021/04/06 12:30:34;;;;;;;2.33;1.73;;;13.30;38.90;;;;;;4923963;29;20458;-86
2021/04/06 12:33:09;;;;;;;5.67;2.83;;;13.60;38.20;;;;;;4928184;29;20474;-87
2021/04/06 12:35:48;;;;;;;4.70;2.87;;;15.10;37.00;;;;;;4923125;29;20446;-87
2021/04/06 12:38:20;;;;;;;5.47;3.20;;;16.70;36.00;;;;;;4905653;29;20444;-87
2021/04/06 12:40:47;;;;;;;3.27;2.60;;;17.50;33.70;;;;;;4905359;29;20514;-87
2021/04/06 12:43:16;;;;;;;5.40;3.80;;;16.10;32.80;;;;;;4901728;29;20533;-87
2021/04/06 12:45:42;;;;;;;8.20;2.13;;;16.90;34.00;;;;;;4902427;29;20543;-86
2021/04/06 12:48:21;;;;;;;2.90;2.43;;;16.50;32.70;;;;;;4910905;29;20455;-87
2021/04/06 12:51:01;;;;;;;4.93;2.27;;;15.40;34.20;;;;;;4918812;29;20489;-87
2021/04/06 12:53:44;;;;;;;4.30;2.50;;;16.30;34.60;;;;;;4920061;29;20439;-87
2021/04/06 12:56:11;;;;;;;8.23;3.63;;;17.20;33.00;;;;;;4918607;29;20485;-86
2021/04/06 12:58:42;;;;;;;3.60;3.10;;;16.00;33.20;;;;;;4925168;29;20526;-87
2021/04/06 13:01:14;;;;;;;5.13;2.83;;;14.80;34.30;;;;;;4927212;29;20983;-87
2021/04/06 13:07:23;;;;;;;3.70;2.40;;;15.90;34.30;;;;;;5044977;23;20544;-86
2021/04/06 13:13:14;;;;;;;6.73;3.30;;;17.60;31.70;;;;;;4960725;29;20973;-86
2021/04/06 13:15:44;;;;;;;5.40;4.33;;;17.70;32.00;;;;;;4958281;29;20452;-86
2021/04/06 13:18:14;;;;;;;8.43;4.67;;;16.60;31.80;;;;;;4957495;29;20460;-87
2021/04/06 13:20:44;;;;;;;3.30;2.50;;;15.20;32.10;;;;;;4961777;29;20487;-88
2021/04/06 13:23:10;;;;;;;4.60;2.30;;;14.00;34.00;;;;;;4958098;29;20471;-86
2021/04/06 13:25:38;;;;;;;4.70;2.20;;;13.50;35.60;;;;;;4955336;29;20479;-87
2021/04/06 13:28:09;;;;;;;2.90;2.00;;;14.00;35.50;;;;;;4945922;29;20533;-86
2021/04/06 13:30:45;;;;;;;3.40;2.03;;;14.90;34.10;;;;;;4954873;29;20467;-85
2021/04/06 13:33:11;;;;;;;2.60;2.07;;;16.10;31.10;;;;;;4941043;29;20446;-84
2021/04/06 13:35:40;;;;;;;2.10;1.47;;;14.70;31.20;;;;;;4934392;29;20498;-86
2021/04/06 13:38:08;;;;;;;3.60;2.30;;;13.70;33.20;;;;;;4926781;29;20458;-86
2021/04/06 13:40:34;;;;;;;3.20;2.10;;;12.80;33.90;;;;;;4923230;29;20490;-85
2021/04/06 13:43:04;;;;;;;3.80;2.27;;;12.20;34.70;;;;;;4942886;29;20814;-86
2021/04/06 13:45:32;;;;;;;5.83;2.30;;;11.20;44.10;;;;;;4941885;29;20442;-86
2021/04/06 13:47:59;;;;;;;4.00;2.30;;;10.30;50.60;;;;;;4940983;29;20445;-87
2021/04/06 13:50:25;;;;;;;3.53;2.23;;;9.20;55.30;;;;;;4941691;29;20477;-85
2021/04/06 13:52:52;;;;;;;4.27;2.20;;;8.60;58.40;;;;;;4959243;29;20532;-85
2021/04/06 13:55:19;;;;;;;4.50;2.50;;;8.30;60.90;;;;;;4962188;29;20484;-86
2021/04/06 13:57:45;;;;;;;6.63;2.20;;;7.90;63.30;;;;;;4962472;29;20503;-87
2021/04/06 14:00:14;;;;;;;4.17;1.93;;;7.60;65.30;;;;;;4960195;29;20496;-86
2021/04/06 14:02:42;;;;;;;3.20;2.00;;;7.30;67.50;;;;;;4944964;29;20442;-87
2021/04/06 14:05:12;;;;;;;3.80;2.50;;;6.90;73.30;;;;;;4942137;29;20456;-87
2021/04/06 14:08:07;;;;;;;2.37;2.17;;;6.40;80.00;;;;;;4947211;29;20489;-85
2021/04/06 14:10:38;;;;;;;2.07;1.90;;;5.70;85.60;;;;;;4956102;29;20454;-85
2021/04/06 14:13:09;;;;;;;2.20;2.00;;;5.20;91.00;;;;;;4968491;29;20455;-86
2021/04/06 14:18:20;;;;;;;2.88;2.60;;;5.10;96.00;;;;;;5099729;23;20246;-86
2021/04/06 14:20:50;;;;;;;2.15;2.00;;;5.20;97.50;;;;;;4946014;29;20245;-86
2021/04/06 14:23:24;;;;;;;3.70;2.40;;;5.40;97.40;;;;;;4945839;29;20270;-89
2021/04/06 14:26:02;;;;;;;3.38;2.63;;;5.50;95.30;;;;;;4939441;29;20228;-86
2021/04/06 14:32:03;;;;;;;2.47;1.83;;;5.90;93.20;;;;;;4849148;29;20266;-85